Time;durP1;ratioP1;P1;durP2;ratioP2;P2;SDS_P1;SDS_P2;PMS_P1;PMS_P2;Temp;Humidity;BMP_temperature;BMP_pressure;BME280_temperature;BME280_humidity;BME280_pressure;Samples;Min_cycle;Max_cycle;Signal;HPM_P1;HPM_P2
2021/05/29 00:02:16;;;;;;;2.40;2.20;;;;;;;11.03;66.06;99533.09;5069297;28;43524;-75
2021/05/29 00:04:44;;;;;;;2.70;2.50;;;;;;;10.97;66.72;99528.13;5069982;28;42213;-77
2021/05/29 00:07:12;;;;;;;3.67;2.40;;;;;;;10.91;66.93;99534.59;5052587;28;39525;-79
2021/05/29 00:09:40;;;;;;;2.50;2.30;;;;;;;10.82;67.00;99524.50;5068852;28;42187;-76
2021/05/29 00:12:10;;;;;;;2.90;2.67;;;;;;;10.84;66.63;99538.53;5069062;28;42717;-77
2021/05/29 00:14:39;;;;;;;2.43;2.23;;;;;;;10.79;66.63;99536.13;5069118;28;42268;-80
2021/05/29 00:17:07;;;;;;;3.10;2.30;;;;;;;10.79;66.58;99529.97;5069156;28;40836;-77
2021/05/29 00:19:35;;;;;;;2.80;2.60;;;;;;;10.76;66.22;99538.06;5068231;28;42466;-73
2021/05/29 00:22:04;;;;;;;2.67;2.43;;;;;;;10.72;66.58;99541.81;5068585;28;42079;-76
2021/05/29 00:24:31;;;;;;;2.20;2.00;;;;;;;10.69;66.68;99536.69;5071289;28;42937;-80
2021/05/29 00:26:59;;;;;;;2.63;2.37;;;;;;;10.65;66.87;99529.81;5069822;28;39870;-76
2021/05/29 00:29:26;;;;;;;2.67;2.47;;;;;;;10.64;66.91;99541.34;5070982;28;42498;-78
2021/05/29 00:31:53;;;;;;;2.50;2.30;;;;;;;10.61;66.88;99533.59;5069993;28;42835;-78
2021/05/29 00:34:20;;;;;;;2.93;2.30;;;;;;;10.60;66.96;99545.13;5069858;28;43196;-75
2021/05/29 00:36:47;;;;;;;2.80;2.60;;;;;;;10.58;66.54;99541.69;5068840;28;40725;-81
2021/05/29 00:39:15;;;;;;;2.37;2.17;;;;;;;10.53;67.17;99538.41;5068761;28;41698;-78
2021/05/29 00:41:42;;;;;;;2.93;2.40;;;;;;;10.51;67.01;99535.81;5069845;28;42429;-79
2021/05/29 00:44:14;;;;;;;2.93;2.47;;;;;;;10.48;66.99;99536.00;5070194;28;42110;-83
2021/05/29 00:46:41;;;;;;;2.50;2.23;;;;;;;10.47;66.76;99533.44;5069571;28;40995;-77
2021/05/29 00:49:09;;;;;;;2.10;1.90;;;;;;;10.43;66.82;99541.53;5069823;28;43119;-76
2021/05/29 00:51:37;;;;;;;2.33;2.00;;;;;;;10.37;66.50;99538.34;5069043;28;43101;-83
2021/05/29 00:54:05;;;;;;;2.53;2.17;;;;;;;10.37;66.63;99549.78;5067065;28;43105;-82
2021/05/29 00:56:33;;;;;;;2.20;2.00;;;;;;;10.32;66.55;99541.22;5070255;28;41618;-77
2021/05/29 00:59:02;;;;;;;1.93;1.83;;;;;;;10.27;66.68;99548.53;5068277;28;41408;-83
2021/05/29 01:01:29;;;;;;;2.10;1.90;;;;;;;10.24;66.67;99540.75;5069290;28;43166;-73
2021/05/29 01:03:56;;;;;;;1.80;1.70;;;;;;;10.21;67.23;99540.91;5068824;28;41130;-77
2021/05/29 01:06:23;;;;;;;2.87;2.20;;;;;;;10.16;67.65;99534.94;5068316;28;38981;-81
2021/05/29 01:08:51;;;;;;;2.60;2.40;;;;;;;10.11;67.39;99539.63;5069848;28;41585;-76
2021/05/29 01:11:18;;;;;;;3.13;2.30;;;;;;;10.06;67.34;99544.28;5069395;28;43494;-73
2021/05/29 01:13:46;;;;;;;2.60;2.10;;;;;;;10.03;67.27;99549.72;5067223;28;42286;-74
2021/05/29 01:16:21;;;;;;;1.80;1.70;;;;;;;9.97;67.52;99539.44;5068661;28;39855;-79
2021/05/29 01:18:48;;;;;;;1.90;1.80;;;;;;;9.93;67.31;99548.44;5069062;28;41916;-76
2021/05/29 01:21:16;;;;;;;1.90;1.80;;;;;;;9.88;67.10;99545.19;5068358;28;42787;-83
2021/05/29 01:23:44;;;;;;;2.77;1.90;;;;;;;9.83;67.37;99539.25;5068477;28;42760;-80
2021/05/29 01:26:11;;;;;;;2.47;2.20;;;;;;;9.73;67.36;99542.34;5069390;28;40095;-80
2021/05/29 01:28:38;;;;;;;2.87;2.50;;;;;;;9.71;67.28;99544.19;5068040;28;41464;-86
2021/05/29 01:31:08;;;;;;;2.07;1.87;;;;;;;9.66;67.48;99546.19;5069666;28;42706;-78
2021/05/29 01:33:37;;;;;;;2.07;1.97;;;;;;;9.60;67.70;99541.22;5068460;28;42993;-79
2021/05/29 01:36:07;;;;;;;2.40;2.20;;;;;;;9.56;67.57;99544.94;5069282;28;39621;-80
2021/05/29 01:38:35;;;;;;;2.60;2.40;;;;;;;9.49;68.38;99537.38;5067817;28;41752;-76
2021/05/29 01:41:06;;;;;;;2.43;2.23;;;;;;;9.51;68.47;99543.44;5068029;28;41814;-76
2021/05/29 01:43:35;;;;;;;2.77;2.50;;;;;;;9.43;68.27;99535.00;5051310;28;41144;-78
2021/05/29 01:46:04;;;;;;;2.73;2.20;;;;;;;9.42;68.46;99535.94;5068719;28;40857;-77
2021/05/29 01:48:34;;;;;;;2.60;2.23;;;;;;;9.36;68.63;99531.81;5068536;28;41634;-76
2021/05/29 01:51:02;;;;;;;3.23;2.40;;;;;;;9.38;68.74;99539.66;5069357;28;42607;-78
2021/05/29 01:53:30;;;;;;;3.87;2.07;;;;;;;9.33;68.75;99540.72;5068397;28;42170;-77
2021/05/29 01:55:57;;;;;;;2.23;2.03;;;;;;;9.31;68.51;99545.22;5068171;28;38966;-77
2021/05/29 01:58:25;;;;;;;2.30;2.10;;;;;;;9.28;68.62;99541.84;5068449;28;42236;-79
2021/05/29 02:00:52;;;;;;;2.53;2.30;;;;;;;9.24;68.66;99543.81;5068531;28;42065;-76
2021/05/29 02:03:19;;;;;;;2.10;2.00;;;;;;;9.16;68.99;99535.34;5066430;28;42756;-78
2021/05/29 02:05:46;;;;;;;1.70;1.60;;;;;;;9.15;68.83;99544.19;5067617;28;40066;-81
2021/05/29 02:08:14;;;;;;;1.93;1.83;;;;;;;9.09;68.59;99538.34;5067618;28;41731;-78
2021/05/29 02:10:43;;;;;;;2.10;1.90;;;;;;;9.11;68.66;99542.66;5067899;28;42773;-74
2021/05/29 02:13:12;;;;;;;1.90;1.70;;;;;;;9.06;68.74;99533.19;5067167;28;42992;-81
2021/05/29 02:15:42;;;;;;;3.57;2.00;;;;;;;9.06;68.72;99541.13;5068458;28;39673;-76
2021/05/29 02:18:11;;;;;;;2.13;1.93;;;;;;;8.98;69.10;99526.50;5068292;28;42349;-75
2021/05/29 02:20:45;;;;;;;2.77;2.50;;;;;;;8.99;69.14;99535.28;5068257;28;42673;-81
2021/05/29 02:23:14;;;;;;;2.77;1.90;;;;;;;8.98;68.93;99542.34;5067434;28;43077;-76
2021/05/29 02:25:42;;;;;;;2.10;1.90;;;;;;;8.96;68.74;99546.84;5067887;28;40392;-79
2021/05/29 02:28:09;;;;;;;2.23;1.90;;;;;;;8.90;69.02;99533.06;5066149;28;41739;-81
2021/05/29 02:30:37;;;;;;;1.87;1.70;;;;;;;8.88;69.31;99535.75;5066984;28;42707;-78
2021/05/29 02:33:07;;;;;;;1.80;1.70;;;;;;;8.84;69.41;99523.63;5068040;28;43096;-77
2021/05/29 02:35:35;;;;;;;2.30;2.10;;;;;;;8.85;69.93;99532.41;5070579;28;40831;-86
2021/05/29 02:38:04;;;;;;;2.00;1.90;;;;;;;8.81;69.90;99528.16;5070675;28;41948;-75
2021/05/29 02:40:31;;;;;;;2.50;2.13;;;;;;;8.78;69.44;99538.88;5072385;28;42795;-77
2021/05/29 02:42:58;;;;;;;2.03;1.90;;;;;;;8.70;69.59;99526.00;5071296;28;42470;-75
2021/05/29 02:45:26;;;;;;;2.37;2.17;;;;;;;8.72;69.80;99545.28;5070740;28;39805;-78
2021/05/29 02:47:53;;;;;;;2.30;2.10;;;;;;;8.64;69.76;99547.41;5071856;28;41703;-77
2021/05/29 02:50:22;;;;;;;2.63;2.20;;;;;;;8.64;69.51;99547.41;5070657;28;43398;-75
2021/05/29 02:52:50;;;;;;;2.07;1.90;;;;;;;8.58;69.58;99547.66;5053603;28;40835;-76
2021/05/29 02:55:22;;;;;;;1.97;1.83;;;;;;;8.55;69.41;99547.78;5070643;28;39901;-76
2021/05/29 02:57:50;;;;;;;4.90;2.40;;;;;;;8.51;69.53;99556.78;5071131;28;41808;-79
2021/05/29 03:00:18;;;;;;;2.20;2.03;;;;;;;8.36;69.22;99531.03;5069825;28;42820;-76
2021/05/29 03:02:46;;;;;;;2.60;2.40;;;;;;;8.39;69.51;99537.06;5054729;28;42717;-74
2021/05/29 03:05:14;;;;;;;2.30;2.10;;;;;;;8.37;69.76;99541.53;5071601;28;40404;-76
2021/05/29 03:07:42;;;;;;;1.63;1.53;;;;;;;8.34;69.73;99536.38;5054012;28;41638;-75
2021/05/29 03:10:10;;;;;;;2.43;2.23;;;;;;;8.32;69.75;99537.34;5070602;28;43222;-76
2021/05/29 03:12:38;;;;;;;2.10;2.00;;;;;;;8.26;69.59;99531.41;5069666;28;40890;-78
2021/05/29 03:15:08;;;;;;;1.80;1.70;;;;;;;8.28;69.60;99540.09;5071135;28;40714;-77
2021/05/29 03:17:36;;;;;;;2.57;2.30;;;;;;;8.26;69.58;99534.03;5070678;28;40222;-78
2021/05/29 03:20:04;;;;;;;1.77;1.67;;;;;;;8.25;70.16;99539.38;5072105;28;43427;-79
2021/05/29 03:22:31;;;;;;;2.40;2.20;;;;;;;8.24;69.82;99545.56;5069961;28;42930;-72
2021/05/29 03:25:00;;;;;;;1.93;1.83;;;;;;;8.19;70.03;99540.47;5070469;28;41746;-78
2021/05/29 03:27:28;;;;;;;2.30;2.10;;;;;;;8.21;70.10;99543.91;5070819;28;41582;-76
2021/05/29 03:29:55;;;;;;;2.23;2.03;;;;;;;8.21;70.12;99545.69;5069672;28;42794;-80
2021/05/29 03:32:22;;;;;;;2.17;1.97;;;;;;;8.20;70.30;99547.47;5071159;28;42251;-81
2021/05/29 03:34:49;;;;;;;2.33;2.13;;;;;;;8.18;70.12;99548.47;5070896;28;40499;-75
2021/05/29 03:37:16;;;;;;;2.83;2.40;;;;;;;8.15;70.19;99538.91;5053235;28;40813;-78
2021/05/29 03:39:43;;;;;;;2.00;1.90;;;;;;;8.18;70.57;99545.81;5071217;28;42663;-73
2021/05/29 03:42:11;;;;;;;2.73;2.00;;;;;;;8.17;70.59;99555.50;5071422;28;41946;-74
2021/05/29 03:44:38;;;;;;;2.67;2.43;;;;;;;8.19;70.27;99553.69;5072150;28;39551;-78
2021/05/29 03:47:06;;;;;;;2.23;2.03;;;;;;;8.20;70.28;99558.03;5072064;28;41636;-77
2021/05/29 03:49:33;;;;;;;2.10;1.80;;;;;;;8.16;70.20;99555.59;5072819;28;42548;-79
2021/05/29 03:52:00;;;;;;;1.83;1.73;;;;;;;8.10;69.93;99546.16;5072987;28;42173;-77
2021/05/29 03:54:27;;;;;;;2.57;1.97;;;;;;;8.16;70.13;99559.06;5071504;28;39987;-76
2021/05/29 03:56:54;;;;;;;2.20;2.00;;;;;;;8.15;69.97;99562.66;5069832;28;42219;-77
2021/05/29 03:59:22;;;;;;;1.93;1.83;;;;;;;8.11;69.89;99571.59;5069679;28;43246;-79
2021/05/29 04:01:49;;;;;;;3.30;1.87;;;;;;;8.11;69.69;99579.53;5068781;28;42792;-76
2021/05/29 04:04:18;;;;;;;1.97;1.87;;;;;;;8.09;69.66;99576.09;5069848;28;39594;-77
2021/05/29 04:06:45;;;;;;;2.07;1.87;;;;;;;8.07;69.87;99584.97;5053612;28;41039;-77
2021/05/29 04:09:13;;;;;;;2.60;2.20;;;;;;;8.06;69.76;99580.63;5070802;28;42780;-80
2021/05/29 04:11:40;;;;;;;2.20;2.00;;;;;;;8.06;69.69;99585.91;5071295;28;42217;-75
2021/05/29 04:14:08;;;;;;;2.40;2.03;;;;;;;8.03;69.77;99586.91;5070452;28;40956;-80
2021/05/29 04:16:36;;;;;;;1.87;1.77;;;;;;;8.03;69.64;99591.31;5051014;28;42014;-75
2021/05/29 04:19:03;;;;;;;2.27;2.07;;;;;;;8.02;69.63;99590.47;5069744;28;42661;-78
2021/05/29 04:21:31;;;;;;;2.23;2.03;;;;;;;8.01;70.02;99594.00;5069537;28;42172;-84
2021/05/29 04:23:58;;;;;;;1.80;1.70;;;;;;;8.01;69.83;99598.44;5070111;28;40533;-76
2021/05/29 04:26:25;;;;;;;2.47;2.27;;;;;;;8.00;70.02;99592.28;5070862;28;42142;-79
2021/05/29 04:28:53;;;;;;;3.87;2.40;;;;;;;8.01;69.84;99590.53;5069441;28;43479;-80
2021/05/29 04:31:21;;;;;;;2.30;2.10;;;;;;;8.02;69.76;99595.72;5069432;28;42923;-79
2021/05/29 04:33:49;;;;;;;2.33;2.13;;;;;;;8.05;70.01;99602.63;5070967;28;40719;-81
2021/05/29 04:36:16;;;;;;;2.20;1.97;;;;;;;8.14;69.63;99611.06;5071167;28;41560;-81
2021/05/29 04:38:43;;;;;;;3.47;1.90;;;;;;;8.29;69.86;99614.84;5069658;28;42762;-84
2021/05/29 04:41:10;;;;;;;3.10;2.00;;;;;;;8.47;69.52;99619.41;5069412;28;42322;-78
2021/05/29 04:43:37;;;;;;;2.67;2.47;;;;;;;8.64;69.49;99616.06;5052814;28;38678;-79
2021/05/29 04:46:04;;;;;;;3.23;2.67;;;;;;;8.80;69.51;99606.53;5067686;28;41220;-76
2021/05/29 04:48:31;;;;;;;3.13;2.50;;;;;;;8.96;69.71;99599.66;5070263;28;42561;-79
2021/05/29 04:51:12;;;;;;;2.20;2.00;;;;;;;9.19;69.37;99595.13;5069800;28;42385;-79
2021/05/29 04:53:40;;;;;;;1.97;1.70;;;;;;;9.37;69.35;99599.59;5051809;28;39240;-82
2021/05/29 04:56:09;;;;;;;1.87;1.67;;;;;;;9.52;69.26;99596.22;5068303;28;41698;-81
2021/05/29 04:58:37;;;;;;;2.10;1.90;;;;;;;9.64;68.97;99593.00;5069490;28;43530;-74
2021/05/29 05:01:06;;;;;;;2.93;2.30;;;;;;;9.71;68.88;99594.47;5068393;28;42293;-85
2021/05/29 05:03:34;;;;;;;2.73;2.50;;;;;;;9.84;68.81;99596.53;5068087;28;40116;-77
2021/05/29 05:06:02;;;;;;;3.13;2.47;;;;;;;10.00;69.16;99593.06;5070165;28;42481;-76
2021/05/29 05:08:29;;;;;;;2.80;2.60;;;;;;;10.07;68.71;99575.97;5068986;28;42759;-84
2021/05/29 05:10:56;;;;;;;3.10;2.80;;;;;;;10.37;69.04;99596.59;5069299;28;42648;-75
2021/05/29 05:13:23;;;;;;;2.93;2.73;;;;;;;10.57;68.74;99599.09;5067571;28;40056;-77
2021/05/29 05:15:51;;;;;;;3.70;3.40;;;;;;;10.72;68.70;99603.63;5069203;28;42133;-78
2021/05/29 05:18:20;;;;;;;3.50;3.03;;;;;;;10.87;68.02;99606.41;5068326;28;42601;-86
2021/05/29 05:20:47;;;;;;;3.43;2.73;;;;;;;11.01;67.78;99604.75;5067772;28;41974;-76
2021/05/29 05:23:18;;;;;;;3.23;2.87;;;;;;;11.13;67.87;99608.53;5067309;28;39752;-84
2021/05/29 05:25:45;;;;;;;3.93;3.10;;;;;;;11.22;67.33;99623.13;5051688;28;40646;-82
2021/05/29 05:28:12;;;;;;;3.23;2.93;;;;;;;11.30;67.31;99613.81;5069010;28;42796;-77
2021/05/29 05:30:40;;;;;;;2.67;2.47;;;;;;;11.36;67.38;99616.16;5068820;28;42401;-78
2021/05/29 05:33:08;;;;;;;4.83;3.27;;;;;;;11.45;67.27;99620.09;5067864;28;39712;-84
2021/05/29 05:35:37;;;;;;;3.60;3.20;;;;;;;11.52;66.81;99616.16;5069245;28;42400;-80
2021/05/29 05:38:04;;;;;;;3.93;3.30;;;;;;;11.58;66.81;99626.47;5067390;28;42505;-88
2021/05/29 05:40:32;;;;;;;4.57;3.30;;;;;;;11.63;66.90;99619.09;5069807;28;42939;-86
2021/05/29 05:42:59;;;;;;;4.80;3.57;;;;;;;11.67;66.74;99609.16;5067518;28;40116;-79
2021/05/29 05:45:27;;;;;;;3.57;2.73;;;;;;;11.84;66.62;99622.41;5068911;28;41922;-80
2021/05/29 05:47:54;;;;;;;2.60;2.40;;;;;;;11.95;66.41;99624.47;5068508;28;41806;-78
2021/05/29 05:50:21;;;;;;;2.87;2.67;;;;;;;12.05;66.45;99630.97;5068176;28;42693;-80
2021/05/29 05:52:48;;;;;;;2.90;2.63;;;;;;;12.13;66.23;99624.28;5068627;28;40990;-76
2021/05/29 05:55:16;;;;;;;3.63;2.70;;;;;;;12.21;65.89;99616.75;5068906;28;42486;-76
2021/05/29 05:57:44;;;;;;;2.63;2.17;;;;;;;12.39;65.78;99625.44;5068650;28;41836;-79
2021/05/29 06:00:15;;;;;;;2.73;2.53;;;;;;;12.54;65.59;99626.34;5067365;28;42285;-74
2021/05/29 06:02:43;;;;;;;3.03;2.40;;;;;;;12.63;65.09;99616.97;5068269;28;39934;-84
2021/05/29 06:05:11;;;;;;;2.97;2.40;;;;;;;12.80;65.18;99624.84;5068734;28;42272;-80
2021/05/29 06:07:38;;;;;;;3.40;2.27;;;;;;;12.91;65.23;99622.38;5066791;28;42652;-83
2021/05/29 06:10:07;;;;;;;3.60;2.50;;;;;;;13.03;65.31;99623.44;5051215;28;41432;-79
2021/05/29 06:12:37;;;;;;;2.87;2.27;;;;;;;13.19;65.08;99630.44;5067923;28;39540;-79
2021/05/29 06:18:06;;;;;;;2.07;1.87;;;;;;;13.58;64.61;99628.94;5066981;28;43005;-76
2021/05/29 06:20:34;;;;;;;2.93;2.30;;;;;;;13.89;63.83;99639.38;5068391;28;41487;-80
2021/05/29 06:23:01;;;;;;;2.10;2.00;;;;;;;14.11;63.14;99645.97;5067754;28;39366;-75
2021/05/29 06:25:28;;;;;;;2.27;2.03;;;;;;;14.24;62.51;99645.09;5051435;28;40985;-73
2021/05/29 06:27:55;;;;;;;2.33;2.13;;;;;;;14.45;62.48;99648.22;5081001;28;43276;-75
2021/05/29 06:30:24;;;;;;;1.87;1.77;;;;;;;14.57;61.00;99647.41;5082040;28;42811;-74
2021/05/29 06:32:51;;;;;;;3.80;2.03;;;;;;;14.64;60.79;99648.69;5081571;28;40203;-73
2021/05/29 06:35:18;;;;;;;2.10;1.63;;;;;;;14.73;60.58;99650.72;5079913;28;40657;-75
2021/05/29 06:37:45;;;;;;;3.13;2.00;;;;;;;14.87;60.47;99648.94;5074479;28;42666;-74
2021/05/29 06:40:13;;;;;;;1.60;1.50;;;;;;;15.02;60.97;99648.78;5070581;28;43390;-79
2021/05/29 06:42:40;;;;;;;2.77;1.60;;;;;;;15.16;58.97;99646.97;5067031;28;40901;-80
2021/05/29 06:45:08;;;;;;;2.43;1.60;;;;;;;15.29;59.45;99651.38;5066562;28;41894;-80
2021/05/29 06:47:36;;;;;;;2.40;2.00;;;;;;;15.46;59.75;99651.03;5066561;28;41780;-79
2021/05/29 06:50:05;;;;;;;3.27;1.20;;;;;;;15.70;59.46;99655.66;5051094;28;42137;-80
2021/05/29 06:52:33;;;;;;;1.60;1.47;;;;;;;15.96;58.71;99662.66;5049009;28;38890;-79
2021/05/29 06:55:07;;;;;;;1.67;1.40;;;;;;;16.16;56.31;99669.25;5064788;28;41475;-79
2021/05/29 07:00:19;;;;;;;1.47;1.37;;;;;;;16.67;54.07;99686.00;5062404;28;41401;-83
2021/05/29 07:02:48;;;;;;;2.17;1.50;;;;;;;16.93;51.87;99685.88;5063700;28;39112;-79
2021/05/29 07:05:15;;;;;;;1.30;1.20;;;;;;;17.25;51.62;99686.94;5062888;28;40899;-82
2021/05/29 07:07:43;;;;;;;1.63;1.10;;;;;;;17.40;51.35;99699.16;5046062;28;42938;-82
2021/05/29 07:10:11;;;;;;;2.07;1.37;;;;;;;17.45;51.82;99693.41;5059699;28;42367;-82
2021/05/29 07:12:38;;;;;;;1.17;1.03;;;;;;;17.54;53.12;99679.34;5062208;28;40057;-82
2021/05/29 07:15:07;;;;;;;1.33;1.20;;;;;;;17.66;52.73;99672.19;5064233;28;41572;-82
2021/05/29 07:17:39;;;;;;;3.53;1.30;;;;;;;17.69;53.54;99654.03;5045614;28;42028;-86
2021/05/29 07:20:09;;;;;;;3.47;1.27;;;;;;;18.03;52.01;99687.06;5044083;28;42113;-83
2021/05/29 07:22:36;;;;;;;1.70;1.60;;;;;;;18.44;49.08;99706.97;5049662;28;38788;-86
2021/05/29 07:25:04;;;;;;;2.47;1.30;;;;;;;19.21;48.00;99705.03;5066103;28;43215;-80
2021/05/29 07:27:32;;;;;;;2.17;1.20;;;;;;;20.49;46.11;99710.88;5065243;28;42056;-80
2021/05/29 07:29:59;;;;;;;1.17;1.10;;;;;;;21.96;44.03;99714.22;5066891;28;42622;-84
2021/05/29 07:32:26;;;;;;;2.07;1.13;;;;;;;23.30;38.30;99761.25;5068110;28;40823;-80
2021/05/29 07:34:53;;;;;;;1.63;1.20;;;;;;;24.06;36.88;99758.81;5068424;28;42500;-81
2021/05/29 07:37:21;;;;;;;1.77;1.13;;;;;;;24.45;36.86;99758.38;5066805;28;43720;-83
2021/05/29 07:39:48;;;;;;;1.20;1.07;;;;;;;24.66;36.65;99758.81;5066753;28;42579;-81
2021/05/29 07:42:16;;;;;;;1.10;1.00;;;;;;;24.77;34.06;99773.91;5065917;28;40660;-88
2021/05/29 07:44:43;;;;;;;1.87;1.03;;;;;;;25.44;34.55;99774.78;5066146;28;41609;-85
2021/05/29 07:47:10;;;;;;;1.63;0.83;;;;;;;26.32;33.96;99767.63;5049399;28;41862;-84
2021/05/29 07:49:37;;;;;;;1.17;1.03;;;;;;;27.71;32.60;99769.38;5066827;28;42928;-82
2021/05/29 07:52:04;;;;;;;2.10;1.37;;;;;;;29.12;30.24;99770.16;5064186;28;39936;-81
2021/05/29 07:54:32;;;;;;;1.07;1.07;;;;;;;29.64;26.65;99816.31;5067981;28;41770;-80
2021/05/29 07:56:59;;;;;;;1.00;0.90;;;;;;;29.94;26.49;99811.53;5066272;28;43266;-81
2021/05/29 07:59:27;;;;;;;1.20;1.10;;;;;;;29.93;27.15;99803.53;5066809;28;42291;-81
2021/05/29 08:01:54;;;;;;;1.07;0.97;;;;;;;29.72;27.22;99795.34;5064736;28;39657;-81
2021/05/29 08:04:21;;;;;;;1.00;1.00;;;;;;;29.06;28.94;99751.81;5050080;28;40926;-83
2021/05/29 08:06:48;;;;;;;2.10;0.90;;;;;;;29.25;28.66;99778.50;5062665;28;43816;-81
2021/05/29 08:09:16;;;;;;;1.33;0.90;;;;;;;29.85;28.92;99763.56;5066311;28;41963;-82
2021/05/29 08:11:44;;;;;;;1.90;1.20;;;;;;;30.57;26.42;99795.19;5066504;28;40478;-83
2021/05/29 08:14:12;;;;;;;0.70;0.70;;;;;;;30.97;25.72;99788.88;5066292;28;41627;-82
2021/05/29 08:16:40;;;;;;;1.00;0.90;;;;;;;31.61;25.48;99793.91;5064967;28;42778;-86
2021/05/29 08:19:08;;;;;;;1.90;0.70;;;;;;;31.94;24.29;99809.56;5048728;28;41102;-82
2021/05/29 08:21:36;;;;;;;0.93;0.70;;;;;;;31.80;23.70;99802.38;5065030;28;40902;-85
2021/05/29 08:24:04;;;;;;;1.10;0.80;;;;;;;32.16;24.69;99804.69;5065736;28;41779;-82
2021/05/29 08:26:32;;;;;;;1.10;1.00;;;;;;;32.08;24.52;99800.28;5066758;28;42703;-83
2021/05/29 08:29:00;;;;;;;0.90;0.90;;;;;;;31.47;25.26;99789.47;5064929;28;41237;-85
2021/05/29 08:31:27;;;;;;;1.17;0.73;;;;;;;31.06;24.82;99784.06;5067338;28;39743;-88
2021/05/29 08:33:54;;;;;;;0.70;0.70;;;;;;;30.99;24.51;99800.47;5066713;28;40796;-84
2021/05/29 08:36:22;;;;;;;1.70;0.90;;;;;;;30.88;24.46;99790.13;5062276;28;43108;-82
2021/05/29 08:38:49;;;;;;;0.70;0.70;;;;;;;31.17;24.74;99797.19;5049737;28;41384;-87
2021/05/29 08:41:16;;;;;;;1.90;0.90;;;;;;;31.86;22.73;99812.50;5049782;28;39859;-86
2021/05/29 08:43:44;;;;;;;1.23;1.13;;;;;;;32.91;22.92;99803.31;5064864;28;41780;-84
2021/05/29 08:57:01;;;;;;;1.33;1.20;;;;;;;36.00;18.85;99821.44;5166704;27;20513;-84
2021/05/29 08:59:32;;;;;;;1.47;0.80;;;;;;;36.14;19.83;99803.56;5166987;27;39509;-86
2021/05/29 09:02:04;;;;;;;1.07;0.90;;;;;;;35.95;19.92;99810.28;5149292;27;42420;-86
2021/05/29 09:04:31;;;;;;;1.10;1.00;;;;;;;35.18;20.42;99765.19;5168628;27;42348;-89
2021/05/29 09:06:59;;;;;;;0.80;0.80;;;;;;;34.71;21.37;99808.13;5149667;27;43467;-85
2021/05/29 09:09:26;;;;;;;0.97;0.97;;;;;;;34.35;21.16;99790.53;5150784;27;38965;-89
2021/05/29 09:12:12;;;;;;;1.20;0.83;;;;;;;34.67;20.61;99741.69;5150860;27;40456;-88
2021/05/29 09:14:41;;;;;;;1.27;0.80;;;;;;;35.90;19.36;99824.78;5167355;27;43515;-87
2021/05/29 09:17:19;;;;;;;0.77;0.77;;;;;;;36.60;19.52;99763.25;5148432;27;41142;-88
2021/05/29 09:20:01;;;;;;;1.47;0.93;;;;;;;36.09;18.91;99810.91;5150954;27;38769;-87
2021/05/29 09:22:32;;;;;;;1.53;1.00;;;;;;;35.17;20.03;99780.88;5149822;27;42966;-89
2021/05/29 09:25:19;;;;;;;1.00;0.90;;;;;;;36.48;19.41;99812.94;5149755;27;41682;-87
2021/05/29 09:27:55;;;;;;;1.13;1.00;;;;;;;37.91;17.95;99819.50;5167548;27;41093;-88
2021/05/29 09:30:37;;;;;;;1.13;0.90;;;;;;;39.25;16.75;99830.34;5150157;27;40728;-89
2021/05/29 09:33:17;;;;;;;1.02;0.90;;;;;;;40.03;15.75;99820.66;5149484;27;40472;-87
2021/05/29 09:35:55;;;;;;;0.80;0.80;;;;;;;40.70;14.80;99815.28;5166195;27;42786;-89
2021/05/29 09:38:27;;;;;;;1.10;1.00;;;;;;;39.70;15.28;99800.34;5163731;27;41329;-89
2021/05/29 09:40:55;;;;;;;0.77;0.77;;;;;;;40.14;14.72;99833.50;5148444;27;39177;-88
2021/05/29 09:43:24;;;;;;;1.00;1.00;;;;;;;40.43;14.28;99825.72;5165957;27;40821;-89
2021/05/29 09:45:59;;;;;;;0.90;0.90;;;;;;;40.42;15.05;99805.44;5164471;27;43554;-84
2021/05/29 09:48:27;;;;;;;1.88;0.90;;;;;;;40.81;14.61;99805.94;5165689;27;42261;-85
2021/05/29 09:51:09;;;;;;;1.00;0.70;;;;;;;40.81;14.56;99802.31;5148585;27;40004;-85
2021/05/29 09:53:39;;;;;;;0.90;0.90;;;;;;;40.78;14.06;99809.28;5167267;27;41297;-81
2021/05/29 09:56:07;;;;;;;1.33;0.90;;;;;;;41.08;15.05;99807.72;5160758;27;42447;-85
2021/05/29 09:58:54;;;;;;;1.15;0.90;;;;;;;41.04;14.96;99793.53;5150293;27;41658;-85
2021/05/29 10:01:39;;;;;;;1.00;0.90;;;;;;;40.25;15.52;99801.13;5152193;27;39151;-85
2021/05/29 10:04:07;;;;;;;1.40;0.90;;;;;;;38.68;16.49;99790.03;5134563;27;40833;-87
2021/05/29 10:06:35;;;;;;;1.10;1.00;;;;;;;37.16;16.68;99778.25;5153121;27;42821;-83
2021/05/29 10:09:03;;;;;;;4.80;4.30;;;;;;;36.00;18.63;99761.59;5150977;27;41323;-84
2021/05/29 10:11:31;;;;;;;5.30;4.80;;;;;;;35.08;18.34;99771.28;5150860;27;39724;-82
2021/05/29 10:13:59;;;;;;;9.77;8.87;;;;;;;34.47;18.88;99752.13;5148765;27;42908;-82
2021/05/29 10:16:26;;;;;;;1.27;1.17;;;;;;;34.46;20.97;99756.78;5149368;27;43198;-83
2021/05/29 10:18:54;;;;;;;3.00;2.80;;;;;;;33.93;20.88;99747.34;5151222;27;42749;-84
2021/05/29 10:21:22;;;;;;;2.13;1.13;;;;;;;33.13;20.58;99761.63;5133910;27;39174;-82
2021/05/29 10:23:49;;;;;;;1.13;1.00;;;;;;;31.84;21.74;99759.81;5152317;27;42704;-83
2021/05/29 10:26:17;;;;;;;0.67;0.67;;;;;;;30.69;22.76;99761.63;5133257;27;41926;-84
2021/05/29 10:28:46;;;;;;;1.13;0.60;;;;;;;29.24;24.29;99735.88;5139504;27;42420;-84
2021/05/29 10:31:15;;;;;;;0.70;0.70;;;;;;;28.03;26.07;99738.28;5133942;27;38916;-83
2021/05/29 10:33:43;;;;;;;1.17;0.80;;;;;;;27.02;26.67;99732.31;5152904;27;41569;-84
2021/05/29 10:36:39;;;;;;;0.73;0.70;;;;;;;26.27;29.25;99729.22;5135421;27;41953;-86
2021/05/29 10:39:08;;;;;;;1.33;1.23;;;;;;;25.30;32.52;99722.91;5152956;27;42095;-83
2021/05/29 10:41:50;;;;;;;1.80;0.50;;;;;;;24.30;33.76;99693.16;5135248;27;39995;-87
2021/05/29 10:44:42;;;;;;;0.93;0.87;;;;;;;23.68;36.63;99672.69;5152785;27;41769;-85
2021/05/29 10:47:15;;;;;;;1.40;0.90;;;;;;;23.30;37.61;99658.53;5131199;27;42379;-83
2021/05/29 10:49:59;;;;;;;1.73;0.90;;;;;;;23.11;38.11;99651.47;5152467;27;42927;-88
2021/05/29 10:52:52;;;;;;;2.30;0.90;;;;;;;22.93;37.61;99639.81;5152331;27;39893;-82
2021/05/29 10:55:26;;;;;;;1.30;0.80;;;;;;;23.12;37.08;99658.53;5152119;27;42540;-83
2021/05/29 10:57:59;;;;;;;0.60;0.60;;;;;;;23.23;37.58;99636.69;5149223;27;43589;-84
2021/05/29 11:00:57;;;;;;;1.57;0.80;;;;;;;23.66;36.50;99653.91;5130784;27;42092;-85
2021/05/29 11:03:29;;;;;;;0.70;0.60;;;;;;;24.32;37.36;99651.38;5129674;27;39482;-86
2021/05/29 11:06:00;;;;;;;1.33;0.90;;;;;;;24.86;32.15;99659.09;5132121;27;42004;-83
2021/05/29 11:08:51;;;;;;;1.00;0.60;;;;;;;25.58;33.48;99668.31;5129990;27;42731;-84
2021/05/29 11:11:56;;;;;;;0.80;0.80;;;;;;;25.80;35.22;99645.91;5150053;27;42232;-85
2021/05/29 11:14:25;;;;;;;0.63;0.63;;;;;;;25.73;34.50;99648.44;5134635;27;38866;-84
2021/05/29 11:17:14;;;;;;;1.13;0.70;;;;;;;25.76;30.81;99663.53;5135093;27;40627;-85
2021/05/29 11:20:12;;;;;;;0.77;0.70;;;;;;;25.89;31.58;99668.41;5151438;27;42387;-85
2021/05/29 11:22:44;;;;;;;0.97;0.60;;;;;;;25.82;32.07;99657.44;5133792;27;41413;-87
2021/05/29 11:25:15;;;;;;;1.50;0.70;;;;;;;25.89;29.84;99673.84;5151858;27;40044;-84
2021/05/29 11:27:45;;;;;;;1.37;0.70;;;;;;;25.77;31.53;99632.66;5151845;27;41792;-86
2021/05/29 11:30:15;;;;;;;1.00;0.80;;;;;;;26.09;28.33;99670.53;5150434;27;42987;-86
2021/05/29 11:32:53;;;;;;;2.20;0.63;;;;;;;26.48;30.32;99672.44;5134626;27;40885;-85
2021/05/29 11:35:33;;;;;;;14.73;12.70;;;;;;;26.83;28.16;99685.47;5152234;27;40291;-85
2021/05/29 11:38:07;;;;;;;1.70;1.10;;;;;;;27.49;25.81;99691.31;5133210;27;41165;-86
2021/05/29 11:40:50;;;;;;;0.60;0.60;;;;;;;28.09;25.10;99709.44;5152585;27;41896;-85
2021/05/29 11:43:20;;;;;;;1.53;0.60;;;;;;;28.66;25.90;99704.16;5150734;27;41747;-85
2021/05/29 11:45:55;;;;;;;0.87;0.70;;;;;;;29.36;27.18;99684.34;5153611;27;39951;-85
2021/05/29 11:48:28;;;;;;;0.90;0.90;;;;;;;28.64;25.78;99683.56;5138091;27;40648;-84
2021/05/29 11:51:09;;;;;;;1.53;0.80;;;;;;;28.79;25.78;99685.25;5155650;27;42908;-85
2021/05/29 11:53:46;;;;;;;0.50;0.50;;;;;;;29.77;25.11;99697.31;5155301;27;41240;-84
2021/05/29 11:56:17;;;;;;;0.87;0.60;;;;;;;31.08;22.99;99714.41;5153599;27;39939;-85
2021/05/29 11:58:53;;;;;;;0.73;0.70;;;;;;;31.66;21.08;99714.72;5152246;27;40953;-84
2021/05/29 12:01:23;;;;;;;0.93;0.80;;;;;;;32.45;20.41;99725.56;5135135;27;42987;-83
2021/05/29 12:03:53;;;;;;;0.70;0.70;;;;;;;33.25;22.37;99704.13;5133473;27;42006;-83
2021/05/29 12:06:36;;;;;;;2.00;0.77;;;;;;;34.23;21.51;99720.81;5149751;27;39710;-82